createdAt,value
2023-02-28T00:03:38.233Z,90.46
2023-02-28T00:08:40.331Z,90.40
2023-02-28T00:13:47.374Z,90.20
2023-02-28T00:18:49.727Z,90.66
2023-02-28T00:23:51.164Z,90.13
2023-02-28T00:28:53.749Z,90.26
2023-02-28T00:33:55.204Z,89.96
2023-02-28T00:38:56.662Z,90.08
2023-02-28T00:43:58.069Z,90.81
2023-02-28T00:48:59.538Z,90.70
2023-02-28T00:54:00.971Z,90.22
2023-02-28T00:59:02.467Z,89.57
2023-02-28T01:04:04.167Z,89.30
2023-02-28T01:09:07.356Z,89.46
2023-02-28T01:14:09.521Z,89.83
2023-02-28T01:19:12.433Z,89.96
2023-02-28T01:24:13.970Z,89.96
2023-02-28T01:29:16.202Z,90.38
2023-02-28T01:34:19.983Z,90.67
2023-02-28T01:39:21.433Z,90.18
2023-02-28T01:45:00.712Z,90.44
2023-02-28T01:50:06.781Z,90.24
2023-02-28T01:55:09.287Z,90.21
2023-02-28T02:00:14.101Z,90.02
2023-02-28T02:05:24.554Z,89.86
2023-02-28T02:10:33.370Z,90.11
2023-02-28T02:15:43.016Z,89.51
2023-02-28T02:21:16.676Z,89.06
2023-02-28T02:26:30.321Z,89.42
2023-02-28T02:31:57.696Z,89.19
2023-02-28T02:37:06.307Z,89.40
2023-02-28T02:42:16.938Z,89.57
2023-02-28T02:47:22.572Z,89.74
2023-02-28T02:52:30.782Z,89.97
2023-02-28T02:57:41.360Z,89.70
2023-02-28T03:02:45.546Z,89.80
2023-02-28T03:07:46.985Z,89.51
2023-02-28T03:13:20.013Z,89.46
2023-02-28T03:18:52.503Z,89.49
2023-02-28T03:24:06.144Z,89.44
2023-02-28T03:29:22.225Z,89.33
2023-02-28T03:34:30.386Z,89.05
2023-02-28T03:39:43.057Z,88.94
2023-02-28T03:45:21.942Z,89.04
2023-02-28T03:50:28.419Z,88.77
2023-02-28T03:55:35.577Z,88.46
2023-02-28T04:00:40.166Z,88.66
2023-02-28T04:05:50.974Z,88.47
2023-02-28T04:11:18.048Z,88.18
2023-02-28T04:16:34.000Z,87.98
2023-02-28T04:21:39.972Z,88.02
2023-02-28T04:26:47.955Z,87.45
2023-02-28T04:31:49.816Z,87.53
2023-02-28T04:37:10.057Z,87.59
2023-02-28T04:42:14.162Z,87.23
2023-02-28T04:47:15.701Z,86.88
2023-02-28T04:52:17.113Z,86.95
2023-02-28T04:57:18.560Z,86.54
2023-02-28T05:02:21.959Z,86.19
2023-02-28T05:07:23.409Z,86.05
2023-02-28T05:12:24.868Z,86.02
2023-02-28T05:17:26.265Z,85.97
2023-02-28T05:22:27.711Z,85.81
2023-02-28T05:27:29.221Z,85.54
2023-02-28T05:32:30.833Z,85.57
2023-02-28T05:37:32.294Z,85.90
2023-02-28T05:42:34.515Z,85.66
2023-02-28T05:47:36.359Z,85.73
2023-02-28T05:52:38.248Z,85.72
2023-02-28T05:57:39.654Z,85.42
2023-02-28T06:02:41.616Z,85.27
2023-02-28T06:07:44.018Z,84.94
2023-02-28T06:12:45.452Z,85.00
2023-02-28T06:17:47.393Z,85.32
2023-02-28T06:22:51.603Z,85.48
2023-02-28T06:27:53.775Z,85.26
2023-02-28T06:32:55.632Z,85.25
2023-02-28T06:37:57.175Z,85.35
2023-02-28T06:42:58.582Z,85.57
2023-02-28T06:48:01.084Z,85.60
2023-02-28T06:53:02.492Z,85.85
2023-02-28T06:58:03.911Z,85.65
2023-02-28T07:03:05.307Z,86.51
2023-02-28T07:08:07.024Z,85.89
2023-02-28T07:13:09.763Z,86.36
2023-02-28T07:18:11.189Z,86.39
2023-02-28T07:23:12.586Z,87.73
2023-02-28T07:28:15.034Z,88.80
2023-02-28T07:33:16.446Z,90.02
2023-02-28T07:38:17.907Z,90.12
2023-02-28T07:43:19.300Z,90.78
2023-02-28T07:48:20.694Z,90.17
2023-02-28T07:53:22.147Z,89.39
2023-02-28T07:58:24.792Z,89.24
2023-02-28T08:03:26.212Z,89.37
2023-02-28T08:08:32.051Z,89.38
2023-02-28T08:13:33.470Z,89.94
2023-02-28T08:18:34.962Z,89.93
2023-02-28T08:23:37.115Z,89.31
2023-02-28T08:28:38.579Z,90.23
2023-02-28T08:33:41.209Z,90.59
2023-02-28T08:38:42.599Z,90.99
2023-02-28T08:43:44.181Z,90.47
2023-02-28T08:48:46.072Z,90.27
2023-02-28T08:53:50.176Z,90.95
2023-02-28T08:58:52.131Z,90.46
2023-02-28T09:09:01.965Z,90.30
2023-02-28T09:14:04.367Z,90.80
2023-02-28T09:19:05.860Z,90.46
2023-02-28T09:24:08.015Z,91.14
2023-02-28T09:29:09.719Z,90.49
2023-02-28T09:34:11.210Z,90.98
2023-02-28T09:39:15.369Z,91.06
2023-02-28T09:44:42.363Z,90.08
2023-02-28T09:49:47.903Z,90.24
2023-02-28T09:54:49.370Z,90.75
2023-02-28T10:00:19.592Z,90.33
2023-02-28T10:05:27.328Z,91.96
2023-02-28T10:10:35.854Z,92.67
2023-02-28T10:15:37.575Z,91.57
2023-02-28T10:20:41.961Z,92.15
2023-02-28T10:25:48.956Z,90.95
2023-02-28T10:30:53.206Z,90.43
2023-02-28T10:35:55.128Z,90.75
2023-02-28T10:41:06.520Z,90.62
2023-02-28T10:46:10.720Z,90.35
2023-02-28T10:51:14.759Z,90.65
2023-02-28T10:56:19.629Z,91.22
2023-02-28T11:01:39.573Z,91.21
2023-02-28T11:06:41.226Z,91.03
2023-02-28T11:11:48.107Z,92.12
2023-02-28T11:16:51.252Z,93.07
2023-02-28T11:21:55.492Z,93.09
2023-02-28T11:26:58.044Z,92.51
2023-02-28T11:32:02.392Z,92.30
2023-02-28T11:37:06.290Z,92.35
2023-02-28T11:42:54.535Z,91.29
2023-02-28T11:48:10.881Z,91.23
2023-02-28T11:53:30.579Z,90.24
2023-02-28T11:58:53.754Z,90.23
2023-02-28T12:04:17.806Z,90.22
2023-02-28T12:09:48.332Z,90.04
2023-02-28T12:15:17.967Z,90.49
2023-02-28T12:20:32.662Z,90.35
2023-02-28T12:26:08.026Z,91.15
2023-02-28T12:31:22.739Z,90.64
2023-02-28T12:36:26.627Z,91.05
2023-02-28T12:41:38.475Z,91.19
2023-02-28T12:46:45.021Z,90.97
2023-02-28T12:51:47.777Z,90.35
2023-02-28T12:56:54.067Z,90.03
2023-02-28T13:02:23.299Z,89.66
2023-02-28T13:07:37.962Z,90.56
2023-02-28T13:12:49.274Z,90.48
2023-02-28T13:17:56.896Z,91.15
2023-02-28T13:22:58.702Z,98.03
2023-02-28T13:28:04.830Z,93.05
2023-02-28T13:33:29.659Z,85.45
2023-02-28T13:38:36.989Z,82.59
2023-02-28T13:44:03.580Z,82.84
2023-02-28T13:49:26.340Z,82.89
2023-02-28T13:54:56.786Z,84.27
2023-02-28T14:00:32.902Z,83.87
2023-02-28T14:05:35.187Z,85.78
2023-02-28T14:10:46.573Z,86.87
2023-02-28T14:15:56.090Z,87.68
2023-02-28T14:21:26.564Z,87.15
2023-02-28T14:26:45.210Z,87.78
2023-02-28T14:31:59.284Z,87.59
2023-02-28T14:37:03.389Z,88.42
2023-02-28T14:42:32.321Z,88.26
2023-02-28T14:47:36.205Z,88.13
2023-02-28T14:52:37.738Z,88.01
2023-02-28T14:57:54.248Z,87.32
2023-02-28T15:02:57.423Z,87.74
2023-02-28T15:08:17.681Z,88.24
2023-02-28T15:13:20.041Z,88.29
2023-02-28T15:18:21.420Z,87.54
2023-02-28T15:23:23.403Z,88.38
2023-02-28T15:28:25.382Z,87.94
2023-02-28T15:33:32.221Z,88.28
2023-02-28T15:38:36.973Z,88.46
2023-02-28T15:43:40.995Z,88.25
2023-02-28T15:48:52.797Z,88.79
2023-02-28T15:54:01.461Z,88.37
2023-02-28T15:59:07.307Z,88.59
2023-02-28T16:04:18.691Z,89.06
2023-02-28T16:09:20.276Z,89.46
2023-02-28T16:14:31.645Z,88.93
2023-02-28T16:19:34.608Z,89.21
2023-02-28T16:24:36.125Z,89.31
2023-02-28T16:29:38.227Z,88.33
2023-02-28T16:34:39.683Z,88.98
2023-02-28T16:39:42.426Z,88.35
2023-02-28T16:44:44.046Z,88.02
2023-02-28T16:49:45.657Z,87.48
2023-02-28T16:54:47.050Z,87.92
2023-02-28T16:59:51.523Z,87.35
2023-02-28T17:04:52.932Z,87.10
2023-02-28T17:09:54.522Z,87.68
2023-02-28T17:14:55.981Z,87.44
2023-02-28T17:19:57.491Z,87.50
2023-02-28T17:24:59.830Z,87.61
2023-02-28T17:30:01.858Z,87.47
2023-02-28T17:35:03.450Z,87.60
2023-02-28T17:40:05.874Z,87.89
2023-02-28T17:45:07.903Z,87.66
2023-02-28T17:50:16.604Z,87.79
2023-02-28T17:55:19.825Z,87.90
2023-02-28T18:00:24.745Z,88.04
2023-02-28T18:05:26.305Z,87.52
2023-02-28T18:10:28.146Z,87.79
2023-02-28T18:15:29.574Z,87.94
2023-02-28T18:20:31.079Z,87.32
2023-02-28T18:25:32.542Z,87.24
2023-02-28T18:30:37.692Z,86.77
2023-02-28T18:35:39.936Z,86.72
2023-02-28T18:40:42.940Z,86.81
2023-02-28T18:45:44.441Z,86.65
2023-02-28T18:50:47.062Z,86.81
2023-02-28T18:55:48.501Z,86.48
2023-02-28T19:00:50.065Z,86.70
2023-02-28T19:05:59.829Z,86.13
2023-02-28T19:11:10.511Z,85.99
2023-02-28T19:16:14.030Z,86.14
2023-02-28T19:21:18.088Z,86.15
2023-02-28T19:26:22.704Z,86.41
2023-02-28T19:31:25.971Z,86.28
2023-02-28T19:36:28.389Z,86.14
2023-02-28T19:41:30.256Z,86.50
2023-02-28T19:46:32.039Z,87.70
2023-02-28T19:51:34.268Z,88.23
2023-02-28T19:56:35.900Z,88.41
2023-02-28T20:01:38.386Z,87.90
2023-02-28T20:06:39.993Z,87.84
2023-02-28T20:11:41.428Z,87.74
2023-02-28T20:16:44.075Z,87.48
2023-02-28T20:21:45.634Z,87.42
2023-02-28T20:26:47.111Z,87.09
2023-02-28T20:31:48.667Z,86.96
2023-02-28T20:36:50.142Z,86.95
2023-02-28T20:41:51.603Z,87.03
2023-02-28T20:46:53.085Z,86.94
2023-02-28T20:51:54.586Z,86.26
2023-02-28T20:56:56.581Z,86.16
2023-02-28T21:01:58.004Z,85.80
2023-02-28T21:06:59.484Z,86.29
2023-02-28T21:12:00.884Z,86.48
2023-02-28T21:17:02.406Z,86.56
2023-02-28T21:22:04.026Z,86.29
2023-02-28T21:27:05.553Z,86.01
2023-02-28T21:32:07.494Z,85.87
2023-02-28T21:37:10.409Z,85.04
2023-02-28T21:42:12.906Z,84.66
2023-02-28T21:47:14.350Z,84.25
2023-02-28T21:52:15.795Z,84.43
2023-02-28T21:57:17.310Z,84.50
2023-02-28T22:02:18.839Z,84.20
2023-02-28T22:07:20.316Z,84.34
2023-02-28T22:12:21.778Z,83.92
2023-02-28T22:17:23.181Z,83.61
2023-02-28T22:22:25.834Z,83.64
2023-02-28T22:27:27.281Z,83.56
2023-02-28T22:32:28.740Z,83.66
2023-02-28T22:37:30.180Z,83.89
2023-02-28T22:42:34.866Z,83.67
2023-02-28T22:47:36.258Z,83.56
2023-02-28T22:52:40.520Z,83.28
2023-02-28T22:57:42.102Z,82.83
2023-02-28T23:02:44.785Z,82.75
2023-02-28T23:07:46.698Z,82.89
2023-02-28T23:12:51.123Z,83.09
2023-02-28T23:17:52.681Z,82.80
2023-02-28T23:22:54.470Z,82.59
2023-02-28T23:27:56.485Z,82.36
2023-02-28T23:32:58.048Z,82.95
2023-02-28T23:37:59.702Z,82.39
2023-02-28T23:43:01.788Z,82.35
2023-02-28T23:48:04.071Z,82.42
2023-02-28T23:53:05.644Z,82.24
2023-02-28T23:58:07.184Z,82.49
